createdAt,value
2023-03-07T00:02:13.127Z,59.13
2023-03-07T00:04:43.939Z,50.85
2023-03-07T00:07:11.168Z,58.95
2023-03-07T00:09:38.396Z,54.20
2023-03-07T00:12:06.710Z,52.00
2023-03-07T00:14:34.272Z,52.15
2023-03-07T00:17:01.751Z,59.90
2023-03-07T00:19:29.094Z,50.85
2023-03-07T00:21:56.555Z,49.92
2023-03-07T00:24:24.019Z,52.97
2023-03-07T00:26:51.318Z,51.17
2023-03-07T00:29:18.581Z,51.00
2023-03-07T00:31:45.973Z,54.15
2023-03-07T00:34:13.414Z,52.67
2023-03-07T00:36:40.651Z,51.10
2023-03-07T00:39:08.402Z,55.88
2023-03-07T00:41:35.693Z,56.10
2023-03-07T00:44:03.215Z,53.28
2023-03-07T00:46:30.589Z,50.88
2023-03-07T00:48:58.147Z,50.25
2023-03-07T00:51:25.580Z,51.95
2023-03-07T00:53:53.031Z,53.85
2023-03-07T00:56:24.100Z,56.58
2023-03-07T00:58:52.051Z,51.30
2023-03-07T01:01:22.603Z,51.42
2023-03-07T01:03:53.436Z,49.85
2023-03-07T01:06:23.319Z,46.95
2023-03-07T01:08:51.394Z,46.67
2023-03-07T01:11:19.405Z,52.50
2023-03-07T01:13:47.345Z,48.80
2023-03-07T01:16:19.459Z,53.00
2023-03-07T01:18:50.582Z,50.15
2023-03-07T01:21:24.541Z,52.22
2023-03-07T01:23:52.602Z,47.45
2023-03-07T01:26:22.463Z,50.60
2023-03-07T01:28:55.428Z,52.70
2023-03-07T01:31:23.786Z,55.55
2023-03-07T01:33:52.753Z,52.45
2023-03-07T01:36:30.568Z,52.78
2023-03-07T01:39:14.026Z,48.92
2023-03-07T01:41:49.120Z,50.55
2023-03-07T01:44:25.020Z,54.88
2023-03-07T01:46:57.281Z,52.45
2023-03-07T01:49:52.465Z,54.05
2023-03-07T01:52:29.462Z,53.60
2023-03-07T01:55:05.068Z,61.63
2023-03-07T01:57:37.114Z,51.38
2023-03-07T02:00:09.921Z,52.15
2023-03-07T02:02:47.522Z,57.33
2023-03-07T02:05:28.053Z,50.78
2023-03-07T02:07:58.718Z,54.05
2023-03-07T02:10:30.000Z,53.92
2023-03-07T02:12:57.710Z,56.13
2023-03-07T02:15:25.316Z,61.83
2023-03-07T02:17:53.594Z,56.72
2023-03-07T02:20:44.890Z,60.70
2023-03-07T02:23:30.317Z,55.20
2023-03-07T02:26:20.430Z,59.30
2023-03-07T02:28:48.456Z,60.78
2023-03-07T02:31:16.708Z,57.10
2023-03-07T02:33:44.108Z,54.00
2023-03-07T02:36:16.010Z,57.60
2023-03-07T02:39:01.593Z,59.00
2023-03-07T02:41:32.273Z,51.40
2023-03-07T02:44:02.729Z,58.67
2023-03-07T02:46:30.460Z,57.28
2023-03-07T02:48:57.848Z,58.15
2023-03-07T02:51:25.258Z,59.60
2023-03-07T02:53:52.553Z,58.40
2023-03-07T02:56:19.860Z,58.58
2023-03-07T02:58:47.156Z,54.58
2023-03-07T03:01:14.676Z,55.13
2023-03-07T03:03:42.358Z,58.10
2023-03-07T03:06:10.144Z,61.35
2023-03-07T03:08:37.412Z,54.67
2023-03-07T03:11:04.807Z,58.72
2023-03-07T03:13:32.295Z,61.17
2023-03-07T03:15:59.858Z,56.72
2023-03-07T03:18:31.043Z,56.05
2023-03-07T03:20:59.810Z,54.53
2023-03-07T03:23:28.601Z,54.50
2023-03-07T03:26:02.583Z,52.38
2023-03-07T03:28:31.905Z,56.08
2023-03-07T03:31:01.536Z,54.08
2023-03-07T03:33:30.342Z,57.42
2023-03-07T03:35:59.582Z,54.00
2023-03-07T03:38:27.432Z,52.72
2023-03-07T03:40:56.351Z,58.17
2023-03-07T03:43:23.608Z,57.38
2023-03-07T03:45:55.472Z,54.08
2023-03-07T03:48:23.970Z,60.15
2023-03-07T03:50:51.595Z,59.35
2023-03-07T03:53:19.220Z,56.28
2023-03-07T03:55:46.511Z,59.85
2023-03-07T03:58:13.734Z,55.78
2023-03-07T04:00:40.995Z,56.58
2023-03-07T04:03:08.345Z,57.88
2023-03-07T04:05:35.695Z,57.85
2023-03-07T04:08:03.059Z,58.35
2023-03-07T04:10:30.465Z,59.97
2023-03-07T04:12:57.708Z,59.97
2023-03-07T04:15:25.239Z,59.92
2023-03-07T04:17:52.583Z,55.92
2023-03-07T04:20:20.792Z,57.88
2023-03-07T04:22:48.887Z,57.00
2023-03-07T04:25:17.124Z,58.85
2023-03-07T04:27:44.669Z,59.35
2023-03-07T04:30:12.327Z,63.17
2023-03-07T04:32:40.351Z,59.22
2023-03-07T04:35:08.105Z,61.53
2023-03-07T04:37:35.329Z,61.35
2023-03-07T04:40:02.652Z,65.95
2023-03-07T04:42:29.857Z,62.83
2023-03-07T04:44:57.249Z,61.50
2023-03-07T04:47:25.437Z,64.70
2023-03-07T04:49:52.720Z,65.53
2023-03-07T04:52:20.377Z,62.05
2023-03-07T04:54:48.169Z,69.63
2023-03-07T04:57:15.431Z,71.45
2023-03-07T04:59:42.865Z,75.53
2023-03-07T05:02:13.035Z,70.03
2023-03-07T05:04:41.465Z,72.85
2023-03-07T05:07:09.079Z,72.25
2023-03-07T05:09:36.640Z,74.43
2023-03-07T05:12:05.117Z,72.35
2023-03-07T05:14:32.529Z,70.82
2023-03-07T05:16:59.836Z,67.70
2023-03-07T05:19:27.149Z,72.88
2023-03-07T05:21:54.514Z,73.75
2023-03-07T05:24:21.871Z,70.75
2023-03-07T05:26:49.348Z,79.85
2023-03-07T05:29:16.694Z,73.43
2023-03-07T05:31:43.993Z,71.72
2023-03-07T05:34:11.752Z,74.30
2023-03-07T05:36:40.164Z,72.63
2023-03-07T05:39:08.388Z,76.35
2023-03-07T05:41:36.531Z,75.80
2023-03-07T05:44:04.851Z,72.78
2023-03-07T05:46:32.743Z,72.03
2023-03-07T05:49:00.112Z,71.00
2023-03-07T05:51:28.143Z,67.93
2023-03-07T05:53:55.900Z,68.45
2023-03-07T05:56:24.081Z,67.53
2023-03-07T05:58:51.490Z,71.78
2023-03-07T06:01:19.293Z,66.95
2023-03-07T06:03:47.694Z,65.88
2023-03-07T06:06:15.123Z,71.13
2023-03-07T06:08:43.370Z,70.28
2023-03-07T06:11:11.598Z,66.57
2023-03-07T06:13:40.088Z,70.93
2023-03-07T06:16:07.531Z,64.95
2023-03-07T06:18:35.810Z,67.10
2023-03-07T06:21:05.796Z,70.32
2023-03-07T06:23:37.834Z,64.75
2023-03-07T06:26:12.362Z,64.68
2023-03-07T06:28:41.281Z,69.68
2023-03-07T06:31:17.339Z,68.38
2023-03-07T06:33:45.514Z,69.90
2023-03-07T06:36:16.849Z,65.15
2023-03-07T06:38:48.590Z,70.40
2023-03-07T06:41:16.222Z,63.95
2023-03-07T06:43:43.675Z,71.45
2023-03-07T06:46:11.230Z,71.18
2023-03-07T06:48:41.711Z,66.47
2023-03-07T06:51:13.609Z,62.75
2023-03-07T06:53:43.105Z,67.40
2023-03-07T06:56:10.450Z,69.85
2023-03-07T06:58:39.139Z,66.90
2023-03-07T07:01:07.974Z,65.85
2023-03-07T07:03:36.439Z,64.13
2023-03-07T07:06:03.924Z,62.00
2023-03-07T07:08:31.817Z,64.05
2023-03-07T07:11:00.174Z,65.28
2023-03-07T07:13:29.354Z,65.07
2023-03-07T07:15:57.189Z,68.07
2023-03-07T07:18:25.223Z,62.67
2023-03-07T07:20:56.693Z,64.72
2023-03-07T07:23:27.118Z,65.80
2023-03-07T07:25:55.048Z,59.95
2023-03-07T07:28:22.781Z,65.70
2023-03-07T07:30:50.154Z,69.80
2023-03-07T07:33:17.529Z,73.28
2023-03-07T07:35:48.459Z,70.60
2023-03-07T07:38:16.300Z,71.38
2023-03-07T07:40:44.960Z,60.85
2023-03-07T07:43:15.733Z,64.95
2023-03-07T07:45:48.399Z,66.78
2023-03-07T07:48:19.965Z,71.10
2023-03-07T07:50:48.391Z,70.22
2023-03-07T07:53:18.654Z,70.82
2023-03-07T07:55:47.278Z,73.22
2023-03-07T07:58:14.631Z,67.72
2023-03-07T08:00:42.028Z,65.35
2023-03-07T08:03:09.337Z,61.75
2023-03-07T08:05:36.748Z,78.55
2023-03-07T08:08:04.308Z,66.43
2023-03-07T08:10:31.775Z,71.25
2023-03-07T08:12:59.032Z,68.70
2023-03-07T08:15:26.332Z,71.57
2023-03-07T08:17:53.610Z,70.07
2023-03-07T08:20:22.473Z,70.07
2023-03-07T08:22:50.726Z,67.53
2023-03-07T08:25:21.560Z,69.40
2023-03-07T08:27:53.107Z,74.13
2023-03-07T08:30:21.657Z,69.25
2023-03-07T08:32:50.707Z,67.20
2023-03-07T08:35:18.671Z,71.15
2023-03-07T08:37:49.043Z,72.25
2023-03-07T08:40:16.967Z,70.40
2023-03-07T08:42:44.316Z,69.78
2023-03-07T08:45:12.136Z,71.25
2023-03-07T08:47:39.371Z,69.05
2023-03-07T08:50:07.376Z,72.65
2023-03-07T08:52:34.634Z,72.97
2023-03-07T08:55:01.986Z,70.05
2023-03-07T08:57:29.269Z,74.25
2023-03-07T08:59:56.579Z,71.35
2023-03-07T09:02:24.062Z,70.40
2023-03-07T09:04:51.503Z,73.25
2023-03-07T09:07:19.315Z,69.75
2023-03-07T09:09:46.537Z,70.32
2023-03-07T09:12:14.880Z,67.93
2023-03-07T09:14:42.425Z,71.68
2023-03-07T09:17:09.831Z,68.03
2023-03-07T09:19:37.213Z,70.68
2023-03-07T09:22:04.677Z,72.72
2023-03-07T09:24:32.145Z,70.35
2023-03-07T09:26:59.389Z,69.88
2023-03-07T09:29:26.851Z,65.88
2023-03-07T09:31:54.645Z,67.32
2023-03-07T09:34:21.903Z,73.78
2023-03-07T09:36:51.558Z,70.57
2023-03-07T09:39:18.907Z,70.10
2023-03-07T09:42:18.448Z,70.18
2023-03-07T09:45:14.642Z,64.47
2023-03-07T09:48:32.918Z,63.95
2023-03-07T09:51:12.161Z,64.07
2023-03-07T09:53:43.946Z,63.20
2023-03-07T09:56:37.424Z,62.78
2023-03-07T09:59:24.577Z,62.55
2023-03-07T10:02:00.798Z,54.42
2023-03-07T10:07:03.942Z,60.25
2023-03-07T10:09:31.358Z,57.58
2023-03-07T10:12:11.490Z,60.55
2023-03-07T10:15:03.705Z,56.53
2023-03-07T10:18:08.930Z,61.13
2023-03-07T10:20:54.808Z,62.08
2023-03-07T10:23:41.231Z,59.10
2023-03-07T10:26:42.329Z,57.17
2023-03-07T10:29:22.413Z,61.55
2023-03-07T10:31:56.666Z,59.40
2023-03-07T10:34:30.740Z,57.78
2023-03-07T10:37:20.306Z,58.10
2023-03-07T10:39:52.688Z,53.30
2023-03-07T10:42:23.182Z,50.10
2023-03-07T10:44:51.727Z,50.97
2023-03-07T10:47:23.770Z,56.38
2023-03-07T10:49:55.778Z,54.00
2023-03-07T10:52:34.861Z,51.80
2023-03-07T10:55:34.015Z,52.55
2023-03-07T10:58:22.602Z,45.83
2023-03-07T11:01:01.945Z,42.42
2023-03-07T11:03:53.829Z,43.97
2023-03-07T11:06:40.321Z,40.85
2023-03-07T11:09:18.478Z,38.65
2023-03-07T11:11:53.989Z,41.55
2023-03-07T11:14:22.058Z,43.53
2023-03-07T11:16:55.777Z,43.08
2023-03-07T11:19:43.735Z,42.15
2023-03-07T11:22:21.961Z,40.03
2023-03-07T11:24:56.511Z,45.05
2023-03-07T11:27:36.263Z,49.63
2023-03-07T11:30:22.049Z,42.28
2023-03-07T11:33:17.842Z,38.22
2023-03-07T11:36:09.344Z,41.45
2023-03-07T11:39:02.895Z,37.03
2023-03-07T11:41:33.602Z,39.85
2023-03-07T11:44:19.033Z,37.97
2023-03-07T11:46:58.004Z,37.55
2023-03-07T11:49:42.996Z,35.17
2023-03-07T11:52:24.350Z,37.75
2023-03-07T11:55:24.217Z,35.40
2023-03-07T11:58:10.333Z,34.10
2023-03-07T12:00:58.909Z,37.67
2023-03-07T12:03:50.468Z,28.85
2023-03-07T12:06:49.889Z,25.77
2023-03-07T12:09:40.133Z,28.98
2023-03-07T12:12:28.885Z,31.90
2023-03-07T12:14:59.255Z,25.10
2023-03-07T12:18:03.577Z,26.95
2023-03-07T12:21:03.753Z,30.73
2023-03-07T12:23:39.068Z,30.75
2023-03-07T12:26:20.800Z,22.27
2023-03-07T12:29:11.029Z,22.23
2023-03-07T12:31:43.570Z,22.67
2023-03-07T12:34:10.968Z,25.20
2023-03-07T12:36:44.729Z,22.35
2023-03-07T12:39:24.587Z,23.08
2023-03-07T12:42:17.985Z,24.60
2023-03-07T12:44:59.813Z,26.58
2023-03-07T12:47:36.304Z,20.50
2023-03-07T12:50:35.033Z,20.33
2023-03-07T12:53:23.315Z,18.38
2023-03-07T12:56:15.286Z,18.48
2023-03-07T12:59:04.191Z,23.73
2023-03-07T13:01:40.314Z,21.77
2023-03-07T13:06:39.973Z,23.38
2023-03-07T13:09:13.642Z,21.55
2023-03-07T13:12:09.488Z,21.83
2023-03-07T13:14:51.647Z,23.00
2023-03-07T13:17:31.243Z,22.17
2023-03-07T13:19:59.715Z,22.00
2023-03-07T13:22:27.320Z,22.13
2023-03-07T13:24:56.616Z,21.65
2023-03-07T13:27:53.744Z,21.35
2023-03-07T13:32:52.158Z,20.25
2023-03-07T13:35:28.887Z,20.23
2023-03-07T13:37:57.473Z,19.90
2023-03-07T13:40:30.331Z,18.27
2023-03-07T13:42:57.729Z,19.88
2023-03-07T13:45:40.667Z,20.80
2023-03-07T13:48:15.481Z,23.45
2023-03-07T13:50:42.927Z,19.83
2023-03-07T13:53:20.951Z,16.77
2023-03-07T13:55:54.655Z,20.27
2023-03-07T13:58:25.384Z,22.30
2023-03-07T14:01:00.468Z,17.75
2023-03-07T14:03:32.340Z,16.83
2023-03-07T14:06:15.267Z,15.48
2023-03-07T14:08:43.043Z,16.92
2023-03-07T14:11:24.414Z,18.52
2023-03-07T14:14:08.058Z,19.55
2023-03-07T14:16:41.271Z,20.48
2023-03-07T14:19:36.369Z,17.13
2023-03-07T14:22:09.874Z,15.98
2023-03-07T14:24:46.432Z,17.90
2023-03-07T14:27:15.645Z,16.35
2023-03-07T14:29:56.850Z,17.10
2023-03-07T14:32:29.933Z,16.25
2023-03-07T14:34:58.247Z,18.17
2023-03-07T14:37:32.665Z,22.92
2023-03-07T14:39:59.939Z,18.42
2023-03-07T14:43:00.652Z,23.05
2023-03-07T14:45:49.748Z,15.63
2023-03-07T14:48:31.620Z,19.70
2023-03-07T14:51:06.936Z,21.48
2023-03-07T14:53:35.084Z,20.73
2023-03-07T14:56:07.603Z,19.95
2023-03-07T14:58:37.027Z,19.88
2023-03-07T15:01:07.018Z,19.58
2023-03-07T15:03:34.272Z,23.58
2023-03-07T15:06:02.952Z,23.23
2023-03-07T15:08:38.153Z,17.90
2023-03-07T15:11:20.418Z,22.02
2023-03-07T15:13:58.267Z,20.55
2023-03-07T15:16:41.388Z,21.65
2023-03-07T15:19:44.877Z,21.77
2023-03-07T15:22:19.887Z,22.77
2023-03-07T15:24:49.824Z,23.65
2023-03-07T15:27:23.248Z,19.05
2023-03-07T15:29:50.892Z,21.00
2023-03-07T15:32:40.109Z,22.00
2023-03-07T15:35:13.037Z,20.02
2023-03-07T15:38:07.273Z,18.00
2023-03-07T15:40:36.029Z,22.00
2023-03-07T15:43:04.517Z,19.05
2023-03-07T15:45:40.873Z,26.27
2023-03-07T15:50:37.885Z,26.27
2023-03-07T15:53:33.602Z,25.15
2023-03-07T15:56:05.067Z,21.20
2023-03-07T15:58:35.160Z,23.05
2023-03-07T16:01:23.074Z,19.60
2023-03-07T16:03:58.069Z,25.15
2023-03-07T16:06:45.043Z,23.02
2023-03-07T16:09:17.523Z,24.25
2023-03-07T16:11:46.597Z,23.50
2023-03-07T16:14:23.887Z,22.83
2023-03-07T16:16:53.281Z,21.17
2023-03-07T16:19:20.742Z,20.75
2023-03-07T16:21:48.141Z,24.40
2023-03-07T16:24:15.465Z,24.50
2023-03-07T16:26:44.183Z,20.02
2023-03-07T16:29:16.731Z,28.35
2023-03-07T16:31:44.695Z,21.73
2023-03-07T16:34:23.150Z,22.58
2023-03-07T16:36:50.442Z,23.50
2023-03-07T16:39:18.554Z,22.52
2023-03-07T16:41:48.782Z,23.55
2023-03-07T16:44:21.744Z,21.58
2023-03-07T16:47:03.743Z,16.10
2023-03-07T16:49:31.355Z,22.00
2023-03-07T16:52:05.829Z,23.35
2023-03-07T16:54:34.413Z,15.97
2023-03-07T16:57:02.542Z,11.68
2023-03-07T16:59:34.866Z,10.35
2023-03-07T17:02:09.873Z,9.85
2023-03-07T17:04:37.105Z,15.15
2023-03-07T17:07:05.583Z,10.35
2023-03-07T17:09:33.372Z,9.35
2023-03-07T17:12:00.681Z,9.60
2023-03-07T17:14:28.253Z,9.32
2023-03-07T17:16:55.523Z,8.35
2023-03-07T17:19:28.223Z,14.85
2023-03-07T17:21:58.567Z,8.85
2023-03-07T17:24:27.219Z,11.13
2023-03-07T17:26:56.383Z,11.43
2023-03-07T17:29:29.029Z,9.52
2023-03-07T17:31:56.573Z,11.27
2023-03-07T17:34:29.803Z,9.35
2023-03-07T17:36:57.863Z,11.40
2023-03-07T17:39:25.140Z,9.55
2023-03-07T17:41:52.388Z,9.82
2023-03-07T17:44:19.733Z,9.25
2023-03-07T17:46:47.378Z,12.13
2023-03-07T17:49:15.204Z,11.48
2023-03-07T17:51:42.556Z,11.38
2023-03-07T17:54:09.942Z,11.95
2023-03-07T17:56:37.806Z,14.20
2023-03-07T17:59:05.682Z,10.52
2023-03-07T18:01:34.918Z,14.98
2023-03-07T18:04:04.198Z,11.38
2023-03-07T18:06:33.969Z,18.50
2023-03-07T18:09:02.292Z,10.13
2023-03-07T18:11:29.610Z,14.27
2023-03-07T18:13:57.301Z,9.10
2023-03-07T18:16:24.764Z,15.45
2023-03-07T18:18:59.505Z,11.57
2023-03-07T18:21:29.994Z,12.95
2023-03-07T18:23:57.884Z,12.20
2023-03-07T18:26:25.310Z,10.07
2023-03-07T18:28:53.904Z,10.90
2023-03-07T18:31:28.665Z,11.73
2023-03-07T18:33:56.675Z,14.95
2023-03-07T18:36:25.278Z,10.90
2023-03-07T18:38:52.686Z,15.57
2023-03-07T18:41:24.664Z,15.75
2023-03-07T18:43:56.684Z,13.98
2023-03-07T18:46:27.138Z,18.70
2023-03-07T18:48:56.720Z,13.85
2023-03-07T18:51:25.993Z,16.17
2023-03-07T18:53:59.499Z,14.02
2023-03-07T18:56:27.710Z,14.05
2023-03-07T18:58:56.709Z,14.50
2023-03-07T19:01:29.663Z,12.98
2023-03-07T19:04:00.228Z,12.93
2023-03-07T19:06:39.613Z,16.98
2023-03-07T19:09:09.671Z,14.13
2023-03-07T19:11:36.995Z,22.30
2023-03-07T19:14:04.797Z,15.50
2023-03-07T19:16:32.178Z,12.88
2023-03-07T19:19:00.059Z,15.20
2023-03-07T19:21:29.494Z,15.98
2023-03-07T19:23:58.967Z,17.65
2023-03-07T19:26:26.274Z,16.63
2023-03-07T19:28:54.804Z,14.88
2023-03-07T19:31:28.029Z,15.73
2023-03-07T19:33:55.882Z,12.07
2023-03-07T19:36:32.060Z,20.58
2023-03-07T19:38:59.523Z,14.82
2023-03-07T19:41:28.651Z,17.25
2023-03-07T19:43:57.009Z,16.45
2023-03-07T19:46:25.281Z,14.07
2023-03-07T19:48:52.554Z,12.10
2023-03-07T19:51:22.640Z,18.77
2023-03-07T19:53:50.912Z,18.27
2023-03-07T19:56:22.478Z,15.23
2023-03-07T19:58:50.325Z,18.98
2023-03-07T20:01:20.485Z,16.20
2023-03-07T20:03:48.511Z,14.55
2023-03-07T20:06:19.853Z,15.95
2023-03-07T20:08:51.893Z,14.02
2023-03-07T20:11:30.391Z,16.30
2023-03-07T20:13:59.842Z,19.67
2023-03-07T20:16:29.490Z,17.65
2023-03-07T20:18:59.668Z,13.82
2023-03-07T20:21:28.763Z,18.73
2023-03-07T20:23:59.547Z,12.35
2023-03-07T20:26:33.235Z,11.75
2023-03-07T20:29:01.951Z,12.27
2023-03-07T20:31:30.724Z,16.92
2023-03-07T20:33:59.757Z,17.45
2023-03-07T20:36:30.211Z,16.80
2023-03-07T20:38:59.756Z,18.15
2023-03-07T20:41:29.230Z,19.13
2023-03-07T20:44:03.509Z,14.05
2023-03-07T20:46:32.129Z,18.50
2023-03-07T20:49:01.415Z,17.35
2023-03-07T20:51:31.390Z,18.02
2023-03-07T20:54:06.491Z,15.98
2023-03-07T20:56:35.610Z,15.40
2023-03-07T20:59:03.407Z,15.90
2023-03-07T21:01:32.581Z,14.98
2023-03-07T21:04:06.100Z,14.20
2023-03-07T21:06:34.515Z,14.00
2023-03-07T21:09:06.297Z,14.82
2023-03-07T21:11:35.466Z,15.80
2023-03-07T21:14:03.669Z,17.88
2023-03-07T21:16:31.492Z,16.48
2023-03-07T21:19:01.720Z,15.50
2023-03-07T21:21:31.685Z,17.40
2023-03-07T21:23:59.845Z,16.58
2023-03-07T21:26:31.320Z,17.85
2023-03-07T21:28:59.679Z,18.55
2023-03-07T21:31:32.080Z,17.52
2023-03-07T21:34:13.593Z,13.63
2023-03-07T21:36:48.744Z,17.15
2023-03-07T21:39:24.170Z,16.38
2023-03-07T21:41:51.848Z,16.48
2023-03-07T21:44:19.164Z,19.70
2023-03-07T21:46:46.927Z,13.27
2023-03-07T21:49:21.765Z,14.23
2023-03-07T21:51:50.113Z,14.35
2023-03-07T21:54:17.411Z,15.02
2023-03-07T21:56:44.967Z,15.55
2023-03-07T21:59:13.210Z,16.17
2023-03-07T22:01:44.883Z,13.73
2023-03-07T22:04:12.504Z,13.05
2023-03-07T22:06:39.755Z,14.98
2023-03-07T22:09:07.094Z,16.25
2023-03-07T22:11:34.373Z,13.88
2023-03-07T22:14:01.900Z,16.38
2023-03-07T22:16:29.227Z,17.33
2023-03-07T22:18:57.385Z,15.65
2023-03-07T22:21:26.779Z,15.13
2023-03-07T22:23:59.597Z,14.95
2023-03-07T22:26:28.869Z,15.23
2023-03-07T22:28:56.265Z,15.25
2023-03-07T22:31:24.716Z,14.85
2023-03-07T22:33:53.180Z,16.83
2023-03-07T22:36:20.677Z,15.85
2023-03-07T22:38:53.371Z,14.88
2023-03-07T22:41:22.683Z,15.10
2023-03-07T22:43:50.022Z,13.63
2023-03-07T22:46:17.400Z,18.05
2023-03-07T22:48:45.148Z,18.23
2023-03-07T22:51:14.847Z,14.52
2023-03-07T22:53:42.235Z,11.05
2023-03-07T22:56:30.776Z,15.35
2023-03-07T22:58:58.673Z,16.10
2023-03-07T23:01:28.394Z,15.00
2023-03-07T23:03:58.908Z,14.73
2023-03-07T23:06:29.520Z,13.82
2023-03-07T23:08:59.592Z,15.80
2023-03-07T23:11:29.973Z,15.10
2023-03-07T23:13:57.543Z,13.20
2023-03-07T23:16:28.176Z,16.50
2023-03-07T23:18:57.487Z,12.80
2023-03-07T23:21:27.823Z,15.07
2023-03-07T23:23:55.779Z,16.95
2023-03-07T23:26:28.974Z,17.88
2023-03-07T23:28:56.951Z,19.23
2023-03-07T23:31:30.487Z,17.23
2023-03-07T23:34:00.329Z,15.93
2023-03-07T23:36:30.029Z,11.75
2023-03-07T23:38:58.434Z,17.33
2023-03-07T23:41:26.717Z,18.38
2023-03-07T23:43:59.412Z,19.13
2023-03-07T23:46:28.136Z,18.30
2023-03-07T23:48:56.322Z,17.13
2023-03-07T23:51:24.403Z,17.75
2023-03-07T23:53:52.735Z,20.25
2023-03-07T23:56:20.247Z,23.65
2023-03-07T23:58:51.754Z,19.52
